Etusivu
METAR-TAF:

METAR-TAF

Lentoasemat :

Shanghai-Pudong, Kiina

Shanghai Pudongin kansainvälinen lentoasema

Leveyspiiri: 31-07N, Pituuspiiri: 121-46E, korkeus merenpinnasta: 4 m

Tämänhetkinen sää

Tämä raportti tehtiin 34 minuuttia sitten, kello 18.30 UTC
Tuuli 6 kn idästä/koillisesta
Lämpötila 24°C
Kosteus 83%
Ilmanpaine 1011 hPa
Näkyvyys: 6000 m
Muutamia pilviä 1600 ft:n korkeudessa

METAR: ZSPD 191830Z 07003MPS 6000 FEW016 24/21 Q1011 NOSIG

Aika: 03:04 (19:04 UTC)

Sääennuste

Tämä raportti tehtiin 3 tuntia ja 33 minuuttia sitten, kello 15.31 UTC
Ennuste voimassa 19. päivästä klo 18 UTC - 20. päivään klo 18 UTC
Tuuli 6 kn etelästä/lounaasta
Näkyvyys: 6000 m
Hajonneita pilviä 1100 ft:n korkeudessa
Tulossa
19. päivästä klo 21 UTC - 19. päivään klo 22 UTC
Tuuli 8 kn idästä/koillisesta

TAF: ZSPD 191531Z 1918/2018 20003MPS 6000 BKN011 TX25/2006Z TN22/1921Z BECMG 1921/1922 06004MPS

Säähavainnot ja -ennusteet yli 4000 lentoasemalta (METAR- ja TAF-raportit).

Käytössä olevat sääasemat on merkitty karttaan keltaisilla ja punaisilla pisteillä.

Aseta hiiri pisteen päälle nähdäksesi sääaseman nimen.

Klikkaa sitten nähdäksesi säähavainnot ja -ennusteet.

Kartan vaihtaminen: klikkaa mustalla rastilla varustettuja vihreitä pisteitä, niin voit zoomata sisään; viivalla varustettua vihreää pistettä, niin voit zoomata ulos tai vihreitä nuolia, niin pääset viereisille kartoille.


METAR-TAF: